createdAt,value
2018-09-28T05:31:05.816Z,10.90
2018-09-28T05:33:33.315Z,10.80
2018-09-28T05:36:01.797Z,10.90
2018-09-28T05:38:29.321Z,10.90
2018-09-28T05:40:56.820Z,10.90
2018-09-28T05:43:24.333Z,10.90
2018-09-28T05:45:51.859Z,11.10
2018-09-28T05:48:19.343Z,11.20
2018-09-28T05:50:46.828Z,11.10
2018-09-28T05:53:14.337Z,11.00
2018-09-28T05:55:41.905Z,11.00
2018-09-28T05:58:14.990Z,11.10
2018-09-28T06:00:48.704Z,11.00
2018-09-28T06:03:18.531Z,11.10
2018-09-28T06:05:51.481Z,11.00
2018-09-28T06:08:19.063Z,10.80
2018-09-28T06:10:48.776Z,10.60
2018-09-28T06:13:16.318Z,10.50
2018-09-28T06:15:44.845Z,10.50
2018-09-28T06:18:12.386Z,10.50
2018-09-28T06:20:39.900Z,10.70
2018-09-28T06:23:07.377Z,10.70
2018-09-28T06:25:34.904Z,10.80
2018-09-28T06:28:02.402Z,11.00
2018-09-28T06:30:29.925Z,11.20
2018-09-28T06:32:57.420Z,11.20
2018-09-28T06:35:25.844Z,11.20
2018-09-28T06:37:54.218Z,11.40
2018-09-28T06:40:22.461Z,11.50
2018-09-28T06:42:50.657Z,11.60
2018-09-28T06:45:19.925Z,11.60
2018-09-28T06:47:48.114Z,11.60
2018-09-28T06:50:17.250Z,11.80
2018-09-28T06:52:45.449Z,11.90
2018-09-28T06:55:13.657Z,11.90
2018-09-28T06:57:41.861Z,11.80
2018-09-28T07:00:10.086Z,12.10
2018-09-28T07:02:38.553Z,12.10
2018-09-28T07:05:06.822Z,12.20
2018-09-28T07:07:35.014Z,12.30
2018-09-28T07:10:03.260Z,12.40
2018-09-28T07:12:31.475Z,12.40
2018-09-28T07:14:59.658Z,12.40
2018-09-28T07:17:27.838Z,12.60
2018-09-28T07:19:56.037Z,12.70
2018-09-28T07:22:24.222Z,12.70
2018-09-28T07:24:52.526Z,12.80
2018-09-28T07:27:20.956Z,12.80
2018-09-28T07:29:49.217Z,12.80
2018-09-28T07:32:19.249Z,12.90
2018-09-28T07:34:50.228Z,12.90
2018-09-28T07:37:18.518Z,12.90
2018-09-28T07:39:46.686Z,13.10
2018-09-28T07:42:14.928Z,13.20
2018-09-28T07:44:43.138Z,13.30
2018-09-28T07:47:11.317Z,13.30
2018-09-28T07:49:39.521Z,13.60
2018-09-28T07:52:07.752Z,13.60
2018-09-28T07:54:35.973Z,13.70
2018-09-28T07:57:04.228Z,13.80
2018-09-28T07:59:32.439Z,13.90
2018-09-28T08:02:00.709Z,14.00
2018-09-28T08:04:29.013Z,14.10
2018-09-28T08:06:57.234Z,14.20
2018-09-28T08:09:25.457Z,14.40
2018-09-28T08:11:53.703Z,14.40
2018-09-28T08:14:21.983Z,14.50
2018-09-28T08:16:50.377Z,14.50
2018-09-28T08:19:18.622Z,14.40
2018-09-28T08:21:46.901Z,14.60
2018-09-28T08:24:15.185Z,14.60
2018-09-28T08:26:43.567Z,14.70
2018-09-28T08:29:11.823Z,14.60
2018-09-28T08:31:40.520Z,14.40
2018-09-28T08:34:08.806Z,14.20
2018-09-28T08:36:37.486Z,14.20
2018-09-28T08:39:08.533Z,14.20
2018-09-28T08:41:36.739Z,14.20
2018-09-28T08:44:05.583Z,14.20
2018-09-28T08:46:33.895Z,14.30
2018-09-28T08:49:02.670Z,14.30
2018-09-28T08:51:31.096Z,14.40
2018-09-28T09:19:57.895Z,15.10
2018-09-28T09:22:46.981Z,15.20
2018-09-28T09:25:16.299Z,15.20
2018-09-28T09:28:28.431Z,15.30
2018-09-28T09:30:56.638Z,15.30
2018-09-28T09:33:25.758Z,15.40
2018-09-28T09:35:53.956Z,15.50
2018-09-28T09:38:22.153Z,15.70
2018-09-28T09:40:50.384Z,15.70
2018-09-28T09:43:18.598Z,15.80
2018-09-28T09:45:46.874Z,15.90
2018-09-28T09:48:15.844Z,16.10
2018-09-28T09:50:44.469Z,16.20
2018-09-28T09:53:12.742Z,16.30
2018-09-28T09:55:41.570Z,16.40
2018-09-28T09:58:09.771Z,16.50
2018-09-28T10:00:43.474Z,16.70
2018-09-28T10:03:16.849Z,16.80
2018-09-28T10:05:45.072Z,16.80
2018-09-28T10:08:13.301Z,17.00
2018-09-28T10:10:41.503Z,17.10
2018-09-28T10:13:11.753Z,17.20
2018-09-28T10:15:39.962Z,17.30
2018-09-28T10:18:08.166Z,17.30
2018-09-28T10:20:36.337Z,17.30
2018-09-28T10:23:04.508Z,17.20
2018-09-28T10:25:33.726Z,17.50
2018-09-28T10:28:02.017Z,17.60
2018-09-28T10:30:30.118Z,17.70
2018-09-28T10:32:58.294Z,17.80
2018-09-28T10:35:26.811Z,18.00
2018-09-28T10:37:55.034Z,18.00
2018-09-28T10:40:23.244Z,18.10
2018-09-28T10:42:51.365Z,18.00
2018-09-28T10:45:19.598Z,18.00
2018-09-28T10:47:47.739Z,18.10
2018-09-28T10:50:15.943Z,18.20
2018-09-28T10:52:44.233Z,18.60
2018-09-28T10:55:12.380Z,18.70
2018-09-28T10:57:40.563Z,18.70
2018-09-28T11:00:08.772Z,19.10
2018-09-28T11:02:36.953Z,19.40
2018-09-28T11:05:05.177Z,19.80
2018-09-28T11:07:33.414Z,20.10
2018-09-28T11:10:01.604Z,20.30
2018-09-28T11:12:29.791Z,20.70
2018-09-28T11:14:57.973Z,21.00
2018-09-28T11:17:26.162Z,21.00
2018-09-28T11:19:54.406Z,21.10
2018-09-28T11:22:22.599Z,20.90
2018-09-28T11:24:50.782Z,21.00
2018-09-28T11:27:19.035Z,21.10
2018-09-28T11:29:47.170Z,21.10
2018-09-28T11:32:15.358Z,20.90
2018-09-28T11:34:43.533Z,20.90
2018-09-28T11:37:11.734Z,21.00
2018-09-28T11:39:39.942Z,21.00
2018-09-28T11:42:08.149Z,20.60
2018-09-28T11:44:36.514Z,20.30
2018-09-28T11:47:04.703Z,20.20
2018-09-28T11:49:32.882Z,20.30
2018-09-28T11:52:01.138Z,20.40
2018-09-28T11:54:29.353Z,20.10
2018-09-28T11:56:57.549Z,19.60
2018-09-28T11:59:25.709Z,19.50
2018-09-28T12:01:53.895Z,19.70
2018-09-28T12:04:36.932Z,19.60
2018-09-28T12:07:05.379Z,19.70
2018-09-28T12:09:33.863Z,19.70
2018-09-28T12:12:02.030Z,19.60
2018-09-28T12:14:30.196Z,19.70
2018-09-28T12:16:58.350Z,19.60
2018-09-28T12:19:26.573Z,19.50
2018-09-28T12:21:54.755Z,19.50
2018-09-28T12:24:23.050Z,19.70
2018-09-28T12:26:51.128Z,19.90
2018-09-28T12:29:19.296Z,20.20
2018-09-28T12:31:47.461Z,20.50
2018-09-28T12:34:15.630Z,20.50
2018-09-28T12:36:43.857Z,20.10
2018-09-28T12:39:13.168Z,20.10
2018-09-28T12:41:42.179Z,19.90
2018-09-28T12:44:10.572Z,19.70
2018-09-28T12:46:38.730Z,19.50
2018-09-28T12:49:06.957Z,19.30
2018-09-28T12:51:35.128Z,19.30
2018-09-28T12:54:03.306Z,19.20
2018-09-28T12:56:31.555Z,19.00
2018-09-28T12:58:59.846Z,18.80
2018-09-28T13:01:28.034Z,18.60
2018-09-28T13:03:56.239Z,18.40
2018-09-28T13:06:24.704Z,18.20
2018-09-28T13:08:52.847Z,17.90
2018-09-28T13:11:21.400Z,17.90
2018-09-28T13:13:49.579Z,17.50
2018-09-28T13:16:17.766Z,17.30
2018-09-28T13:18:46.020Z,17.00
2018-09-28T13:21:14.182Z,16.90
2018-09-28T13:23:42.370Z,16.80
2018-09-28T13:26:11.549Z,16.80
2018-09-28T13:28:39.690Z,16.70
2018-09-28T13:31:07.877Z,16.70
2018-09-28T13:33:36.076Z,16.40
2018-09-28T13:36:04.475Z,16.30
2018-09-28T13:38:32.864Z,16.20
2018-09-28T13:41:00.846Z,16.00
2018-09-28T13:43:29.019Z,16.00
2018-09-28T13:45:57.221Z,16.00
2018-09-28T13:48:25.516Z,15.80
2018-09-28T13:50:53.763Z,15.60
2018-09-28T13:53:21.912Z,15.50
2018-09-28T13:55:50.066Z,15.50
2018-09-28T13:58:18.276Z,15.50
2018-09-28T14:00:46.429Z,15.40
2018-09-28T14:03:14.609Z,15.30
2018-09-28T14:05:42.803Z,15.30
2018-09-28T14:08:10.996Z,15.20
2018-09-28T14:10:39.240Z,15.00
2018-09-28T14:13:07.715Z,14.90
2018-09-28T14:15:35.903Z,14.90
2018-09-28T14:18:04.805Z,15.00
2018-09-28T14:20:32.965Z,15.10
2018-09-28T14:23:01.462Z,15.00
2018-09-28T14:25:29.646Z,14.90
2018-09-28T14:27:57.837Z,14.80
2018-09-28T14:30:26.126Z,14.80
2018-09-28T14:32:54.282Z,14.60
2018-09-28T14:35:23.645Z,14.50
2018-09-28T14:37:52.801Z,14.30
2018-09-28T14:40:21.289Z,14.40
2018-09-28T14:42:51.306Z,14.40
2018-09-28T14:45:19.513Z,14.40
2018-09-28T14:47:47.818Z,14.40
2018-09-28T14:50:16.418Z,14.40
2018-09-28T14:52:44.627Z,14.30
2018-09-28T14:55:12.739Z,14.10
2018-09-28T14:57:40.954Z,14.20
2018-09-28T15:00:09.229Z,14.20
2018-09-28T15:02:37.482Z,14.20
2018-09-28T15:05:05.966Z,14.10
2018-09-28T15:07:34.124Z,14.00
2018-09-28T15:10:02.376Z,14.00
2018-09-28T15:12:32.559Z,14.00
2018-09-28T15:15:00.722Z,13.80
2018-09-28T15:17:28.950Z,13.90
2018-09-28T15:19:57.124Z,13.80
2018-09-28T15:22:25.307Z,13.80
2018-09-28T15:24:53.531Z,13.70
2018-09-28T15:27:22.102Z,13.70
2018-09-28T15:29:50.273Z,13.70
2018-09-28T15:32:18.502Z,13.80
2018-09-28T15:34:46.682Z,13.80
2018-09-28T15:37:14.858Z,13.80
2018-09-28T15:39:44.057Z,13.70
2018-09-28T15:42:12.594Z,13.60
2018-09-28T15:44:40.794Z,13.60
2018-09-28T15:47:09.419Z,13.60
2018-09-28T15:49:37.596Z,13.70
2018-09-28T15:52:05.892Z,13.90
2018-09-28T15:54:34.902Z,13.80
2018-09-28T15:57:03.077Z,14.00
2018-09-28T15:59:31.289Z,14.00
2018-09-28T16:01:59.458Z,13.90
2018-09-28T16:04:27.615Z,13.80
2018-09-28T16:06:55.794Z,13.60
2018-09-28T16:09:23.978Z,13.80
2018-09-28T16:11:52.149Z,13.70
2018-09-28T16:14:20.314Z,13.60
2018-09-28T16:16:48.534Z,13.60
2018-09-28T16:19:16.715Z,13.70
2018-09-28T16:21:44.870Z,13.60
2018-09-28T16:24:14.073Z,13.60
2018-09-28T16:26:42.262Z,13.50
2018-09-28T16:29:10.435Z,13.50
2018-09-28T16:31:38.610Z,13.50
2018-09-28T16:34:06.769Z,13.50
2018-09-28T16:36:35.742Z,13.40
2018-09-28T16:39:05.239Z,13.30
2018-09-28T16:41:33.442Z,13.30
2018-09-28T16:44:02.609Z,13.20
2018-09-28T16:46:30.779Z,13.20
2018-09-28T16:48:58.947Z,13.20
2018-09-28T16:51:27.987Z,13.10
2018-09-28T16:53:56.179Z,13.20
2018-09-28T16:56:24.356Z,13.20
2018-09-28T16:58:52.558Z,13.30
2018-09-28T17:01:20.759Z,13.30
2018-09-28T17:03:49.108Z,13.20
2018-09-28T17:06:17.270Z,13.30
2018-09-28T17:08:45.925Z,13.20
2018-09-28T17:11:17.025Z,13.10
2018-09-28T17:13:45.209Z,13.20
2018-09-28T17:16:13.398Z,13.20
2018-09-28T17:18:41.589Z,13.20
2018-09-28T17:21:12.034Z,13.10
2018-09-28T17:23:40.510Z,13.10
2018-09-28T17:26:09.077Z,13.10
2018-09-28T17:28:37.335Z,13.00
2018-09-28T17:31:05.490Z,12.90
2018-09-28T17:33:33.963Z,13.00
2018-09-28T17:36:02.523Z,12.90
2018-09-28T17:38:32.829Z,12.90
2018-09-28T17:41:01.647Z,13.00
2018-09-28T17:43:29.850Z,13.00
2018-09-28T17:45:58.078Z,13.00
2018-09-28T17:48:26.254Z,13.00
2018-09-28T17:50:54.458Z,13.00
2018-09-28T17:53:23.552Z,12.80
2018-09-28T17:55:51.795Z,12.80
2018-09-28T17:58:20.027Z,12.70
2018-09-28T18:00:48.289Z,12.80
2018-09-28T18:03:17.403Z,12.70
2018-09-28T18:05:45.651Z,12.60
2018-09-28T18:08:13.791Z,12.60
2018-09-28T18:10:41.983Z,12.50
2018-09-28T18:13:10.183Z,12.50
2018-09-28T18:15:40.284Z,12.60
2018-09-28T18:18:08.490Z,12.60
2018-09-28T18:20:36.687Z,12.50
2018-09-28T18:23:05.580Z,12.60
2018-09-28T18:25:33.727Z,12.60
2018-09-28T18:28:01.882Z,12.50
2018-09-28T18:30:30.083Z,12.50
2018-09-28T18:32:58.261Z,12.40
2018-09-28T18:35:26.429Z,12.40
2018-09-28T18:37:54.601Z,12.40
2018-09-28T18:40:22.801Z,12.20
2018-09-28T18:42:50.982Z,12.20
2018-09-28T18:45:19.207Z,12.00
2018-09-28T18:47:47.472Z,12.00
2018-09-28T18:50:16.653Z,11.80
2018-09-28T18:52:44.842Z,11.90
2018-09-28T18:55:13.020Z,11.70
2018-09-28T18:57:41.219Z,11.60
2018-09-28T19:00:09.680Z,11.60
2018-09-28T19:02:37.896Z,11.50
2018-09-28T19:05:06.059Z,11.40
2018-09-28T19:07:34.275Z,11.10
2018-09-28T19:10:02.422Z,11.10
2018-09-28T19:12:31.580Z,11.00
2018-09-28T19:14:59.743Z,10.90
2018-09-28T19:17:27.939Z,11.00
2018-09-28T19:19:56.322Z,10.70
2018-09-28T19:22:23.979Z,10.70
2018-09-28T19:24:51.482Z,10.60
2018-09-28T19:27:19.842Z,10.50
2018-09-28T19:29:47.706Z,10.30
2018-09-28T19:32:16.264Z,10.30
2018-09-28T19:34:43.754Z,10.20
2018-09-28T19:37:11.281Z,10.20
2018-09-28T19:39:38.766Z,10.20
2018-09-28T19:42:06.277Z,10.30
2018-09-28T19:44:33.754Z,10.40
2018-09-28T19:47:01.252Z,10.30
2018-09-28T19:49:28.739Z,10.60
2018-09-28T19:51:56.235Z,10.60
2018-09-28T19:54:24.741Z,10.70
2018-09-28T19:56:53.267Z,10.80
2018-09-28T19:59:21.741Z,10.80
2018-09-28T20:01:49.256Z,10.80
2018-09-28T20:04:17.627Z,10.90
2018-09-28T20:06:46.162Z,10.90
2018-09-28T20:09:13.606Z,10.80
2018-09-28T20:11:41.984Z,10.80
2018-09-28T20:14:09.467Z,10.80
2018-09-28T20:16:37.857Z,10.80
2018-09-28T20:19:05.441Z,10.80
2018-09-28T20:21:33.614Z,10.60
2018-09-28T20:24:01.854Z,10.60
2018-09-28T20:26:30.032Z,10.50
2018-09-28T20:28:58.305Z,10.70
2018-09-28T20:31:25.793Z,10.70
2018-09-28T20:33:53.988Z,10.60
2018-09-28T20:36:22.226Z,10.50
2018-09-28T20:38:50.430Z,10.50
2018-09-28T20:41:18.890Z,10.60
2018-09-28T20:43:46.389Z,10.70
2018-09-28T20:46:13.906Z,10.70
2018-09-28T20:48:41.427Z,10.70
2018-09-28T20:51:08.955Z,10.80
2018-09-28T20:53:36.447Z,10.70
2018-09-28T20:56:03.979Z,10.70
2018-09-28T20:58:31.522Z,10.80
2018-09-28T21:00:59.069Z,10.80
2018-09-28T21:03:26.548Z,10.80
2018-09-28T21:05:54.120Z,10.70
2018-09-28T21:08:21.635Z,10.80
2018-09-28T21:10:49.139Z,10.70
2018-09-28T21:13:16.667Z,10.70
2018-09-28T21:15:44.226Z,10.70
2018-09-28T21:18:11.779Z,10.70
2018-09-28T21:20:40.310Z,10.70
2018-09-28T21:23:07.846Z,10.70
2018-09-28T21:25:35.386Z,10.70
2018-09-28T21:28:02.886Z,10.80
2018-09-28T21:30:30.433Z,10.70
2018-09-28T21:32:57.999Z,10.70
2018-09-28T21:35:25.660Z,10.70
2018-09-28T21:37:53.251Z,10.70
2018-09-28T21:40:20.781Z,10.70
2018-09-28T21:42:48.301Z,10.70
2018-09-28T21:45:15.845Z,10.60
2018-09-28T21:47:43.419Z,10.60
2018-09-28T21:50:12.655Z,10.60
2018-09-28T21:52:40.147Z,10.50
2018-09-28T21:55:07.678Z,10.50
2018-09-28T21:57:35.163Z,10.50
2018-09-28T22:00:02.674Z,10.40
2018-09-28T22:02:31.048Z,10.40
2018-09-28T22:04:58.529Z,10.30
2018-09-28T22:07:26.067Z,10.30
2018-09-28T22:09:54.444Z,10.20
2018-09-28T22:12:21.943Z,10.20
2018-09-28T22:14:49.446Z,10.20
2018-09-28T22:17:16.929Z,10.20
2018-09-28T22:19:45.298Z,10.20
2018-09-28T22:22:12.789Z,10.20
2018-09-28T22:24:41.149Z,10.20
2018-09-28T22:27:08.658Z,10.10
2018-09-28T22:29:36.153Z,10.10
2018-09-28T22:32:03.642Z,10.10
2018-09-28T22:34:31.136Z,10.20
2018-09-28T22:36:58.602Z,10.10
2018-09-28T22:39:26.080Z,10.10
2018-09-28T22:41:53.572Z,10.00
2018-09-28T22:44:23.097Z,10.10
2018-09-28T22:46:50.603Z,10.10
2018-09-28T22:49:18.095Z,10.00
2018-09-28T22:51:45.597Z,10.00
2018-09-28T22:54:13.102Z,10.10
2018-09-28T22:56:41.478Z,10.10
2018-09-28T22:59:08.969Z,10.00
2018-09-28T23:01:37.505Z,10.00
2018-09-28T23:04:04.990Z,9.90
2018-09-28T23:06:34.392Z,10.00
2018-09-28T23:09:01.903Z,10.10
2018-09-28T23:11:29.377Z,10.20
2018-09-28T23:13:56.859Z,10.10
2018-09-28T23:16:25.350Z,9.90
2018-09-28T23:18:52.834Z,10.00
2018-09-28T23:21:20.306Z,9.90
2018-09-28T23:23:47.792Z,10.00
2018-09-28T23:26:15.247Z,9.90
2018-09-28T23:28:42.730Z,9.90
2018-09-28T23:31:10.205Z,9.90
2018-09-28T23:33:37.675Z,9.90
2018-09-28T23:36:06.067Z,9.80
2018-09-28T23:38:33.615Z,9.70
2018-09-28T23:41:01.111Z,9.70
2018-09-28T23:43:28.585Z,9.70
2018-09-28T23:45:56.079Z,9.70
2018-09-28T23:48:23.622Z,9.70
2018-09-28T23:50:51.116Z,9.70
2018-09-28T23:53:18.615Z,9.60
2018-09-28T23:55:46.073Z,9.60
2018-09-28T23:58:14.473Z,9.70
